Accueil
METAR-TAF:

METAR-TAF

Aéroports :

Aéroport Nikola-Tesla de Belgrade

Belgrade, Serbie

latitude: 44-49N, longitude: 020-17E, altitude: 96 m

Observation

Le bulletin a été fait il y a 45 minutes, à 18:00 UTC
Vent 4 kt de nord/nord-est
Température 34°C
Humidité 53%
Pression 1009 hPa
Visibilité 10 km ou plus
pas de nuages en-dessous de 1500 mètres et pas de cumulonimbus.

METAR: LYBE 131800Z 02004KT CAVOK 34/23 Q1009 NOSIG

Heure: 20:45 (18:45 UTC)

Prévision

Le bulletin a été fait il y a 1 heure et 45 minutes, à 17:00 UTC
Prévision valable du 13 à 18 UTC au 14 à 18 UTC
Vent 6 kt de est
Visibilité 10 km ou plus
pas de nuages en-dessous de 1500 mètres et pas de cumulonimbus.

TAF: LYBE 131700Z 1318/1418 10006KT CAVOK TX39/1413Z TN23/1403Z

Observations et prévisions météorologiques de plus de 4000 aéroports (messages METAR et TAF).

Les stations disponibles sont représentées par des disques jaunes et rouges sur la carte.

Passer la souris dessus pour voir le nom de la station.

Cliquer dessus pour voir les observations et prévisions météorologiques.

Pour changer de carte: cliquez sur les boutons verts avec une croix noire pour zoomer, sur le bouton vert avec un tiret pour effectuer un zoom arrière, ou sur les flèches vertes pour les cartes adjacentes.


METAR-TAF: